Time;durP1;ratioP1;P1;durP2;ratioP2;P2;SDS_P1;SDS_P2;PMS_P1;PMS_P2;Temp;Humidity;BMP_temperature;BMP_pressure;BME280_temperature;BME280_humidity;BME280_pressure;Samples;Min_cycle;Max_cycle;Signal;HPM_P1;HPM_P2
2022/03/31 00:00:36;;;;;;;;;;;4.60;99.90;;;;;;5094632;28;19924;-58
2022/03/31 00:03:04;;;;;;;;;;;4.60;99.90;;;;;;5090519;28;19987;-59
2022/03/31 00:05:29;;;;;;;;;;;4.50;99.90;;;;;;5075345;28;19925;-58
2022/03/31 00:07:57;;;;;;;;;;;4.50;99.90;;;;;;5075502;28;20370;-58
2022/03/31 00:10:24;;;;;;;;;;;4.40;99.90;;;;;;5081154;28;19931;-59
2022/03/31 00:12:51;;;;;;;;;;;4.40;99.90;;;;;;5095370;28;19924;-58
2022/03/31 00:15:17;;;;;;;;;;;4.40;99.90;;;;;;5094830;28;19928;-58
2022/03/31 00:17:43;;;;;;;;;;;4.30;99.90;;;;;;5094134;28;20285;-58
2022/03/31 00:23:36;;;;;;;;;;;4.40;99.90;;;;;;5082879;28;19939;-58
2022/03/31 00:26:03;;;;;;;;;;;4.40;99.90;;;;;;5093831;28;19925;-58
2022/03/31 00:28:29;;;;;;;;;;;4.20;99.90;;;;;;5095022;28;19920;-58
2022/03/31 00:30:54;;;;;;;;;;;4.00;99.90;;;;;;5075012;28;19933;-58
2022/03/31 00:33:20;;;;;;;;;;;4.00;99.90;;;;;;5074886;28;20015;-58
2022/03/31 00:35:46;;;;;;;;;;;4.00;99.90;;;;;;5087348;28;20378;-58
2022/03/31 00:38:12;;;;;;;;;;;3.90;99.90;;;;;;5093427;28;19928;-58
2022/03/31 00:40:38;;;;;;;;;;;3.90;99.90;;;;;;5094685;28;19967;-58
2022/03/31 00:43:03;;;;;;;;;;;3.90;99.90;;;;;;5094784;28;19930;-58
2022/03/31 00:45:34;;;;;;;;;;;3.90;99.90;;;;;;5093322;28;19933;-58
2022/03/31 00:48:00;;;;;;;;;;;3.90;99.90;;;;;;5094524;28;20393;-58
2022/03/31 00:50:26;;;;;;;;;;;3.80;99.90;;;;;;5094965;28;20302;-58
2022/03/31 00:52:52;;;;;;;;;;;3.80;99.90;;;;;;5093293;28;20374;-58
2022/03/31 00:55:19;;;;;;;;;;;3.80;99.90;;;;;;5094446;28;19924;-58
2022/03/31 00:57:45;;;;;;;;;;;3.80;99.90;;;;;;5094620;28;19962;-58
2022/03/31 01:00:14;;;;;;;;;;;3.80;99.90;;;;;;5092223;28;20420;-58
2022/03/31 01:02:41;;;;;;;;;;;3.80;99.90;;;;;;5093623;28;19949;-58
2022/03/31 01:05:07;;;;;;;;;;;3.80;99.90;;;;;;5094174;28;20297;-58
2022/03/31 01:07:34;;;;;;;;;;;3.80;99.90;;;;;;5093374;28;19924;-58
2022/03/31 01:10:00;;;;;;;;;;;3.80;99.90;;;;;;5074334;28;19921;-58
2022/03/31 01:12:26;;;;;;;;;;;3.80;99.90;;;;;;5080741;28;19927;-58
2022/03/31 01:15:06;;;;;;;;;;;3.80;99.90;;;;;;5094090;28;20298;-58
2022/03/31 01:17:32;;;;;;;;;;;3.80;99.90;;;;;;5094338;28;19935;-58
2022/03/31 01:19:58;;;;;;;;;;;3.70;99.90;;;;;;5093475;28;19924;-58
2022/03/31 01:22:24;;;;;;;;;;;3.70;99.90;;;;;;5091975;28;20298;-59
2022/03/31 01:24:51;;;;;;;;;;;3.70;99.90;;;;;;5073700;28;19924;-58
2022/03/31 01:27:16;;;;;;;;;;;3.60;99.90;;;;;;5072296;28;19936;-59
2022/03/31 01:29:42;;;;;;;;;;;3.60;99.90;;;;;;5081511;28;19924;-58
2022/03/31 01:32:08;;;;;;;;;;;3.60;99.90;;;;;;5093928;28;20278;-59
2022/03/31 01:34:34;;;;;;;;;;;3.60;99.90;;;;;;5090701;28;19932;-58
2022/03/31 01:36:59;;;;;;;;;;;3.60;99.90;;;;;;5097597;28;19923;-59
2022/03/31 01:39:25;;;;;;;;;;;3.60;99.90;;;;;;5101042;28;19924;-58
2022/03/31 01:41:51;;;;;;;;;;;3.60;99.90;;;;;;5091603;28;19931;-58
2022/03/31 01:44:17;;;;;;;;;;;3.50;99.90;;;;;;5093771;28;19924;-58
2022/03/31 01:46:42;;;;;;;;;;;3.50;99.90;;;;;;5093353;28;19956;-58
2022/03/31 01:49:10;;;;;;;;;;;3.40;99.90;;;;;;5092693;28;20337;-58
2022/03/31 01:51:35;;;;;;;;;;;3.40;99.90;;;;;;5093769;28;19924;-58
2022/03/31 01:54:01;;;;;;;;;;;3.40;99.90;;;;;;5093109;28;20271;-58
2022/03/31 01:56:27;;;;;;;;;;;3.40;99.90;;;;;;5091228;28;19971;-59
2022/03/31 01:58:52;;;;;;;;;;;3.40;99.90;;;;;;5093649;28;19924;-58
2022/03/31 02:01:18;;;;;;;;;;;3.40;99.90;;;;;;5093080;28;19977;-58
2022/03/31 02:03:44;;;;;;;;;;;3.40;99.90;;;;;;5083074;28;19928;-58
2022/03/31 02:06:10;;;;;;;;;;;3.40;99.90;;;;;;5085466;28;19931;-58
2022/03/31 02:08:35;;;;;;;;;;;3.40;99.90;;;;;;5091563;28;19931;-58
2022/03/31 02:11:02;;;;;;;;;;;3.30;99.90;;;;;;5092550;28;20040;-58
2022/03/31 02:13:28;;;;;;;;;;;3.30;99.90;;;;;;5093079;28;19924;-58
2022/03/31 02:15:54;;;;;;;;;;;3.40;99.90;;;;;;5092238;28;19931;-58
2022/03/31 02:18:20;;;;;;;;;;;3.30;99.90;;;;;;5093593;28;20286;-59
2022/03/31 02:20:46;;;;;;;;;;;3.30;99.90;;;;;;5082229;28;19928;-59
2022/03/31 02:23:12;;;;;;;;;;;3.30;99.90;;;;;;5079962;28;20402;-58
2022/03/31 02:25:38;;;;;;;;;;;3.30;99.90;;;;;;5091959;28;20406;-58
2022/03/31 02:28:04;;;;;;;;;;;3.30;99.90;;;;;;5093334;28;19924;-58
2022/03/31 02:30:30;;;;;;;;;;;3.30;99.90;;;;;;5076627;28;20293;-58
2022/03/31 02:32:56;;;;;;;;;;;3.30;99.90;;;;;;5088733;28;19927;-58
2022/03/31 02:35:23;;;;;;;;;;;3.30;99.90;;;;;;5086545;28;19924;-59
2022/03/31 02:37:48;;;;;;;;;;;3.20;99.90;;;;;;5106584;28;19924;-58
2022/03/31 02:40:14;;;;;;;;;;;3.20;99.90;;;;;;5112302;28;19939;-58
2022/03/31 02:42:40;;;;;;;;;;;3.20;99.90;;;;;;5096959;28;19928;-58
2022/03/31 02:45:06;;;;;;;;;;;3.20;99.90;;;;;;5094418;28;20413;-58
2022/03/31 02:47:35;;;;;;;;;;;3.20;99.90;;;;;;5096074;28;19935;-58
2022/03/31 02:50:01;;;;;;;;;;;3.20;99.90;;;;;;5096791;28;19937;-58
2022/03/31 02:55:24;;;;;;;;;;;3.20;99.90;;;;;;5094731;28;20399;-58
2022/03/31 02:55:24;;;;;;;;;;;3.20;99.90;;;;;;5096679;28;19924;-58
2022/03/31 02:57:51;;;;;;;;;;;3.20;99.90;;;;;;5096567;28;19928;-58
2022/03/31 03:00:17;;;;;;;;;;;3.10;99.90;;;;;;5095909;28;19931;-58
2022/03/31 03:02:42;;;;;;;;;;;3.10;99.90;;;;;;5096155;28;19924;-58
2022/03/31 03:05:08;;;;;;;;;;;3.00;99.90;;;;;;5095961;28;19924;-58
2022/03/31 03:07:34;;;;;;;;;;;3.00;99.90;;;;;;5095981;28;20366;-58
2022/03/31 03:09:59;;;;;;;;;;;3.10;99.90;;;;;;5095229;28;19931;-58
2022/03/31 03:12:25;;;;;;;;;;;3.00;99.90;;;;;;5094551;28;19924;-59
2022/03/31 03:14:51;;;;;;;;;;;3.00;99.90;;;;;;5095872;28;19924;-58
2022/03/31 03:17:17;;;;;;;;;;;3.00;99.90;;;;;;5096199;28;20377;-58
2022/03/31 03:19:43;;;;;;;;;;;3.00;99.90;;;;;;5093594;28;19931;-58
2022/03/31 03:22:10;;;;;;;;;;;3.10;99.90;;;;;;5074996;28;21298;-58
2022/03/31 03:24:36;;;;;;;;;;;3.10;99.90;;;;;;5094039;28;19924;-58
2022/03/31 03:27:01;;;;;;;;;;;3.10;99.90;;;;;;5095836;28;19924;-58
2022/03/31 03:29:27;;;;;;;;;;;3.10;99.90;;;;;;5089198;28;19931;-58
2022/03/31 03:31:53;;;;;;;;;;;3.10;99.90;;;;;;5076090;28;19972;-58
2022/03/31 03:34:18;;;;;;;;;;;3.20;99.90;;;;;;5085830;28;20003;-58
2022/03/31 03:36:44;;;;;;;;;;;3.20;99.90;;;;;;5095167;28;19930;-58
2022/03/31 03:39:11;;;;;;;;;;;3.20;99.90;;;;;;5116661;28;20384;-59
2022/03/31 03:41:37;;;;;;;;;;;3.20;99.90;;;;;;5115719;27;20291;-59
2022/03/31 03:44:03;;;;;;;;;;;3.20;99.90;;;;;;5097063;28;19978;-58
2022/03/31 03:46:29;;;;;;;;;;;3.20;99.90;;;;;;5095841;28;20375;-58
2022/03/31 03:48:55;;;;;;;;;;;3.30;99.90;;;;;;5094262;28;20008;-58
2022/03/31 03:51:23;;;;;;;;;;;3.30;99.90;;;;;;5094358;28;19951;-58
2022/03/31 03:53:48;;;;;;;;;;;3.30;99.90;;;;;;5096063;28;20148;-58
2022/03/31 03:56:15;;;;;;;;;;;3.40;99.90;;;;;;5095297;28;20014;-59
2022/03/31 03:58:41;;;;;;;;;;;3.30;99.90;;;;;;5095404;28;19924;-58
2022/03/31 04:01:08;;;;;;;;;;;3.20;99.90;;;;;;5095277;28;19947;-58
2022/03/31 04:03:33;;;;;;;;;;;3.30;99.90;;;;;;5085367;28;19986;-59
2022/03/31 04:05:59;;;;;;;;;;;3.20;99.90;;;;;;5074640;28;20024;-58
2022/03/31 04:08:24;;;;;;;;;;;3.20;99.90;;;;;;5075051;28;20018;-58
2022/03/31 04:10:50;;;;;;;;;;;3.10;99.90;;;;;;5095199;28;19924;-58
2022/03/31 04:13:16;;;;;;;;;;;3.10;99.90;;;;;;5095522;28;19934;-59
2022/03/31 04:15:41;;;;;;;;;;;3.10;99.90;;;;;;5093365;28;19920;-59
2022/03/31 04:18:08;;;;;;;;;;;3.10;99.90;;;;;;5093896;28;19924;-59
2022/03/31 04:20:34;;;;;;;;;;;3.00;99.90;;;;;;5085365;28;19971;-59
2022/03/31 04:22:59;;;;;;;;;;;3.10;99.90;;;;;;5080782;28;20324;-59
2022/03/31 04:25:25;;;;;;;;;;;3.00;99.90;;;;;;5095261;28;20406;-59
2022/03/31 04:27:51;;;;;;;;;;;3.00;99.90;;;;;;5094274;28;19931;-59
2022/03/31 04:30:20;;;;;;;;;;;2.90;99.90;;;;;;5094225;28;19978;-59
2022/03/31 04:32:47;;;;;;;;;;;2.90;99.90;;;;;;5095292;28;19967;-58
2022/03/31 04:35:13;;;;;;;;;;;2.90;99.90;;;;;;5087385;28;19931;-58
2022/03/31 04:37:38;;;;;;;;;;;3.00;99.90;;;;;;5100089;28;19923;-58
2022/03/31 04:40:05;;;;;;;;;;;2.90;99.90;;;;;;5113982;28;20502;-58
2022/03/31 04:42:31;;;;;;;;;;;2.90;99.90;;;;;;5114698;28;20389;-58
2022/03/31 04:44:56;;;;;;;;;;;2.90;99.90;;;;;;5104082;28;20022;-58
2022/03/31 04:47:22;;;;;;;;;;;2.90;99.90;;;;;;5093508;28;20015;-58
2022/03/31 04:49:48;;;;;;;;;;;2.90;99.90;;;;;;5094004;28;19927;-58
2022/03/31 04:52:13;;;;;;;;;;;2.90;99.90;;;;;;5094180;28;20123;-58
2022/03/31 04:54:43;;;;;;;;;;;2.90;99.90;;;;;;5094367;28;19928;-58
2022/03/31 04:57:12;;;;;;;;;;;2.90;99.90;;;;;;5093056;28;19928;-58
2022/03/31 04:59:38;;;;;;;;;;;3.00;99.90;;;;;;5094016;28;19924;-58
2022/03/31 05:02:04;;;;;;;;;;;3.00;99.90;;;;;;5091800;28;19924;-58
2022/03/31 05:04:30;;;;;;;;;;;3.00;99.90;;;;;;5089286;28;19928;-59
2022/03/31 05:06:56;;;;;;;;;;;3.00;99.90;;;;;;5092757;28;20374;-58
2022/03/31 05:09:22;;;;;;;;;;;3.00;99.90;;;;;;5094426;28;20015;-58
2022/03/31 05:11:48;;;;;;;;;;;3.00;99.90;;;;;;5092513;28;20011;-58
2022/03/31 05:14:13;;;;;;;;;;;3.00;99.90;;;;;;5094059;28;20401;-58
2022/03/31 05:16:39;;;;;;;;;;;3.10;99.90;;;;;;5094365;28;19931;-58
2022/03/31 05:19:04;;;;;;;;;;;3.10;99.90;;;;;;5093334;28;19931;-58
2022/03/31 05:21:30;;;;;;;;;;;3.10;99.90;;;;;;5075196;28;19936;-61
2022/03/31 05:23:56;;;;;;;;;;;3.20;99.90;;;;;;5087912;28;19935;-61
2022/03/31 05:26:22;;;;;;;;;;;3.20;99.90;;;;;;5093335;28;19924;-61
2022/03/31 05:28:47;;;;;;;;;;;3.20;99.90;;;;;;5092938;28;20378;-61
2022/03/31 05:31:14;;;;;;;;;;;3.30;99.90;;;;;;5093800;28;19924;-61
2022/03/31 05:33:39;;;;;;;;;;;3.20;99.90;;;;;;5126266;27;19932;-61
2022/03/31 05:36:05;;;;;;;;;;;3.20;99.90;;;;;;5086866;28;20275;-61
2022/03/31 05:38:31;;;;;;;;;;;3.20;99.90;;;;;;5098554;28;19977;-61
2022/03/31 05:40:57;;;;;;;;;;;3.20;99.90;;;;;;5092979;28;20374;-61
2022/03/31 05:43:22;;;;;;;;;;;3.30;99.90;;;;;;5093195;28;19970;-61
2022/03/31 05:45:48;;;;;;;;;;;3.30;99.90;;;;;;5093418;28;20421;-61
2022/03/31 05:48:14;;;;;;;;;;;3.20;99.90;;;;;;5093093;28;20375;-61
2022/03/31 05:50:39;;;;;;;;;;;3.30;99.90;;;;;;5091812;28;19924;-61
2022/03/31 05:53:05;;;;;;;;;;;3.20;99.90;;;;;;5093734;28;19924;-61
2022/03/31 05:55:32;;;;;;;;;;;3.30;99.90;;;;;;5091172;28;19928;-61
2022/03/31 05:57:58;;;;;;;;;;;3.30;99.90;;;;;;5093069;28;19931;-61
2022/03/31 06:00:24;;;;;;;;;;;3.30;99.90;;;;;;5093340;28;19954;-61
2022/03/31 06:02:50;;;;;;;;;;;3.30;99.90;;;;;;5089346;28;19931;-61
2022/03/31 06:05:17;;;;;;;;;;;3.30;99.90;;;;;;5087022;28;20032;-61
2022/03/31 06:07:42;;;;;;;;;;;3.30;99.90;;;;;;5093276;28;19930;-61
2022/03/31 06:10:08;;;;;;;;;;;3.40;99.90;;;;;;5083262;28;19920;-61
2022/03/31 06:12:34;;;;;;;;;;;3.40;99.90;;;;;;5081931;28;19930;-61
2022/03/31 06:15:00;;;;;;;;;;;3.40;99.90;;;;;;5081419;28;19928;-61
2022/03/31 06:17:26;;;;;;;;;;;3.40;99.90;;;;;;5083804;28;19935;-61
2022/03/31 06:19:51;;;;;;;;;;;3.40;99.90;;;;;;5083752;28;19924;-61
2022/03/31 06:22:17;;;;;;;;;;;3.40;99.90;;;;;;5090252;28;19930;-61
2022/03/31 06:24:43;;;;;;;;;;;3.40;99.90;;;;;;5073129;28;19924;-61
2022/03/31 06:27:09;;;;;;;;;;;3.40;99.90;;;;;;5072807;28;20329;-61
2022/03/31 06:29:35;;;;;;;;;;;3.40;99.90;;;;;;5079420;28;19920;-61
2022/03/31 06:32:01;;;;;;;;;;;3.40;99.90;;;;;;5092969;28;19924;-61
2022/03/31 06:34:27;;;;;;;;;;;3.50;99.90;;;;;;5091311;28;19924;-61
2022/03/31 06:36:54;;;;;;;;;;;3.50;99.90;;;;;;5094110;28;19944;-61
2022/03/31 06:39:19;;;;;;;;;;;3.50;99.90;;;;;;5108517;28;20014;-61
2022/03/31 06:41:46;;;;;;;;;;;3.60;99.90;;;;;;5092730;28;19997;-61
2022/03/31 06:44:13;;;;;;;;;;;3.50;99.90;;;;;;5090792;28;19930;-61
2022/03/31 06:46:40;;;;;;;;;;;3.50;99.90;;;;;;5091671;28;20296;-61
2022/03/31 06:49:06;;;;;;;;;;;3.50;99.90;;;;;;5092402;28;19930;-61
2022/03/31 06:51:32;;;;;;;;;;;3.50;99.90;;;;;;5108399;28;19924;-61
2022/03/31 06:53:59;;;;;;;;;;;3.60;99.90;;;;;;5092983;28;20293;-61
2022/03/31 06:56:27;;;;;;;;;;;3.60;99.90;;;;;;5092524;28;20015;-61
2022/03/31 06:58:54;;;;;;;;;;;3.60;99.90;;;;;;5091703;28;19924;-61
2022/03/31 07:01:20;;;;;;;;;;;3.70;99.90;;;;;;5093039;28;20287;-61
2022/03/31 07:03:45;;;;;;;;;;;3.70;99.90;;;;;;5082573;28;19925;-61
2022/03/31 07:06:11;;;;;;;;;;;3.70;99.90;;;;;;5080051;28;19927;-61
2022/03/31 07:08:37;;;;;;;;;;;3.70;99.90;;;;;;5092828;28;19924;-61
2022/03/31 07:11:03;;;;;;;;;;;3.70;99.90;;;;;;5077503;28;19924;-61
2022/03/31 07:13:29;;;;;;;;;;;3.70;99.90;;;;;;5079983;28;19925;-61
2022/03/31 07:15:54;;;;;;;;;;;3.70;99.90;;;;;;5085647;28;20378;-61
2022/03/31 07:18:20;;;;;;;;;;;3.70;99.90;;;;;;5091653;28;20003;-61
2022/03/31 07:20:46;;;;;;;;;;;3.80;99.90;;;;;;5081754;28;20387;-61
2022/03/31 07:23:12;;;;;;;;;;;3.80;99.90;;;;;;5080249;28;19924;-61
2022/03/31 07:25:38;;;;;;;;;;;3.80;99.90;;;;;;5092263;28;19931;-61
2022/03/31 07:28:04;;;;;;;;;;;3.80;99.90;;;;;;5085383;28;19924;-61
2022/03/31 07:30:30;;;;;;;;;;;3.80;99.90;;;;;;5085019;28;20010;-61
2022/03/31 07:32:58;;;;;;;;;;;3.80;99.90;;;;;;5083712;28;20019;-61
2022/03/31 07:35:25;;;;;;;;;;;3.90;99.90;;;;;;5083636;28;20062;-61
2022/03/31 07:37:51;;;;;;;;;;;3.90;99.90;;;;;;5108893;28;19927;-61
2022/03/31 07:40:18;;;;;;;;;;;3.90;99.90;;;;;;5115273;28;19927;-61
2022/03/31 07:42:44;;;;;;;;;;;3.90;99.90;;;;;;5096694;28;19971;-61
2022/03/31 07:45:11;;;;;;;;;;;3.90;99.90;;;;;;5083322;28;20367;-61
2022/03/31 07:47:39;;;;;;;;;;;3.90;99.90;;;;;;5082554;28;19924;-61
2022/03/31 07:50:05;;;;;;;;;;;3.90;99.90;;;;;;5061893;28;19924;-61
2022/03/31 07:52:31;;;;;;;;;;;3.90;99.90;;;;;;5094544;28;19928;-61
2022/03/31 07:54:57;;;;;;;;;;;3.90;99.90;;;;;;5094718;28;19931;-61
2022/03/31 07:57:22;;;;;;;;;;;3.80;99.90;;;;;;5095589;28;19973;-61
2022/03/31 07:59:48;;;;;;;;;;;3.80;99.90;;;;;;5095227;28;19967;-61
2022/03/31 08:02:16;;;;;;;;;;;3.80;99.90;;;;;;5094569;28;20663;-61
2022/03/31 08:04:41;;;;;;;;;;;3.80;99.90;;;;;;5076631;28;19931;-61
2022/03/31 08:07:07;;;;;;;;;;;3.80;99.90;;;;;;5075283;28;20286;-61
2022/03/31 08:09:33;;;;;;;;;;;3.80;99.90;;;;;;5074751;28;19925;-61
2022/03/31 08:11:59;;;;;;;;;;;3.80;99.90;;;;;;5093073;28;19967;-61
2022/03/31 08:14:25;;;;;;;;;;;3.70;99.90;;;;;;5088679;28;20340;-61
2022/03/31 08:16:51;;;;;;;;;;;3.70;99.90;;;;;;5080229;28;19928;-61
2022/03/31 08:19:18;;;;;;;;;;;3.70;99.90;;;;;;5095057;28;19981;-61
2022/03/31 08:21:44;;;;;;;;;;;3.70;99.90;;;;;;5093885;28;19997;-61
2022/03/31 08:24:11;;;;;;;;;;;3.70;99.90;;;;;;5094445;28;19924;-61
2022/03/31 08:26:37;;;;;;;;;;;3.70;99.90;;;;;;5086738;28;19932;-61
2022/03/31 08:29:04;;;;;;;;;;;3.70;99.90;;;;;;5075612;28;19921;-61
2022/03/31 08:31:29;;;;;;;;;;;3.80;99.90;;;;;;5074495;28;20294;-61
2022/03/31 08:33:55;;;;;;;;;;;3.80;99.90;;;;;;5075298;28;19921;-61
2022/03/31 08:36:21;;;;;;;;;;;3.80;99.90;;;;;;5088412;28;19924;-61
2022/03/31 08:38:46;;;;;;;;;;;3.80;99.90;;;;;;5084888;28;20425;-61
2022/03/31 08:41:12;;;;;;;;;;;3.80;99.90;;;;;;5082923;28;20431;-61
2022/03/31 08:43:40;;;;;;;;;;;4.00;99.90;;;;;;5092096;28;19928;-61
2022/03/31 08:46:06;;;;;;;;;;;3.90;99.90;;;;;;5094834;28;20424;-61
2022/03/31 08:48:33;;;;;;;;;;;3.80;99.90;;;;;;5094157;28;20393;-61
2022/03/31 08:50:58;;;;;;;;;;;3.80;99.90;;;;;;5087116;28;19928;-61
2022/03/31 08:53:24;;;;;;;;;;;3.80;99.90;;;;;;5085329;28;20019;-61
2022/03/31 08:55:50;;;;;;;;;;;3.80;99.90;;;;;;5084662;28;19924;-61
2022/03/31 08:58:15;;;;;;;;;;;3.70;99.90;;;;;;5092054;28;20340;-61
2022/03/31 09:00:41;;;;;;;;;;;3.70;99.90;;;;;;5093659;28;19932;-61
2022/03/31 09:03:07;;;;;;;;;;;3.70;99.90;;;;;;5088273;28;19924;-61
2022/03/31 09:05:35;;;;;;;;;;;3.70;99.90;;;;;;5073033;28;19924;-61
2022/03/31 09:08:02;;;;;;;;;;;3.70;99.90;;;;;;5087950;28;19931;-61
2022/03/31 09:10:29;;;;;;;;;;;3.70;99.90;;;;;;5093124;28;19924;-61
2022/03/31 09:12:55;;;;;;;;;;;3.60;99.90;;;;;;5093478;28;19931;-61
2022/03/31 09:15:21;;;;;;;;;;;3.40;99.90;;;;;;5075446;28;19925;-61
2022/03/31 09:17:52;;;;;;;;;;;3.40;99.90;;;;;;5091591;28;20023;-61
2022/03/31 09:20:17;;;;;;;;;;;3.60;99.90;;;;;;5086858;28;20388;-61
2022/03/31 09:22:45;;;;;;;;;;;3.40;99.90;;;;;;5076053;28;20011;-61
2022/03/31 09:25:11;;;;;;;;;;;3.30;99.90;;;;;;5090567;28;19924;-61
2022/03/31 09:27:37;;;;;;;;;;;3.30;99.90;;;;;;5093614;28;19924;-61
2022/03/31 09:30:04;;;;;;;;;;;3.30;99.90;;;;;;5093893;28;20370;-61
2022/03/31 09:32:30;;;;;;;;;;;3.30;99.90;;;;;;5092660;28;19977;-61
2022/03/31 09:35:03;;;;;;;;;;;3.30;99.90;;;;;;5092358;28;19928;-61
2022/03/31 09:37:31;;;;;;;;;;;3.20;99.90;;;;;;5099548;28;19920;-61
2022/03/31 09:39:56;;;;;;;;;;;3.20;99.90;;;;;;5112959;28;19928;-61
2022/03/31 09:42:22;;;;;;;;;;;3.10;99.90;;;;;;5107645;28;19927;-61
2022/03/31 09:44:56;;;;;;;;;;;3.10;99.90;;;;;;5089773;28;19931;-61
2022/03/31 09:47:21;;;;;;;;;;;3.10;99.90;;;;;;5091205;28;19947;-61
2022/03/31 09:49:56;;;;;;;;;;;3.00;99.90;;;;;;5092459;28;20346;-61
2022/03/31 09:52:22;;;;;;;;;;;3.00;99.90;;;;;;5093188;28;20344;-61
2022/03/31 09:54:48;;;;;;;;;;;2.90;99.90;;;;;;5090359;28;19928;-61
2022/03/31 09:57:14;;;;;;;;;;;2.90;99.90;;;;;;5092067;28;20298;-61
2022/03/31 09:59:41;;;;;;;;;;;2.80;99.90;;;;;;5093136;28;19924;-61
2022/03/31 10:02:07;;;;;;;;;;;2.80;99.90;;;;;;5090898;28;19980;-61
2022/03/31 10:04:34;;;;;;;;;;;2.80;99.90;;;;;;5092825;28;19924;-61
2022/03/31 10:07:00;;;;;;;;;;;2.80;99.90;;;;;;5092794;28;19927;-61
2022/03/31 10:09:25;;;;;;;;;;;2.70;99.90;;;;;;5091144;28;19924;-61
2022/03/31 10:11:58;;;;;;;;;;;2.70;99.90;;;;;;5092701;28;19924;-61
2022/03/31 10:14:23;;;;;;;;;;;2.70;99.90;;;;;;5091145;28;19924;-61
2022/03/31 10:16:51;;;;;;;;;;;2.70;99.90;;;;;;5091528;28;19924;-61
2022/03/31 10:19:28;;;;;;;;;;;2.70;99.90;;;;;;5092753;28;19989;-61
2022/03/31 10:21:56;;;;;;;;;;;2.60;99.90;;;;;;5087869;28;19928;-61
2022/03/31 10:24:41;;;;;;;;;;;2.60;99.90;;;;;;5073460;28;20427;-61
2022/03/31 10:27:08;;;;;;;;;;;2.60;99.90;;;;;;5082775;28;19924;-61
2022/03/31 10:29:38;;;;;;;;;;;2.50;99.90;;;;;;5084528;28;20023;-61
2022/03/31 10:32:13;;;;;;;;;;;2.60;99.90;;;;;;5092653;28;19946;-61
2022/03/31 10:34:44;;;;;;;;;;;2.50;99.90;;;;;;5091892;28;19920;-61
2022/03/31 10:37:10;;;;;;;;;;;2.50;99.90;;;;;;5099898;28;20263;-61
2022/03/31 10:39:36;;;;;;;;;;;2.50;99.90;;;;;;5096736;28;20014;-61
2022/03/31 10:42:04;;;;;;;;;;;2.40;99.90;;;;;;5093142;28;20011;-61
2022/03/31 10:44:32;;;;;;;;;;;2.40;99.90;;;;;;5092339;28;20298;-61
2022/03/31 10:47:00;;;;;;;;;;;2.40;99.90;;;;;;5092441;28;19974;-61
2022/03/31 10:49:26;;;;;;;;;;;2.40;99.90;;;;;;5092270;28;19924;-61
2022/03/31 10:51:53;;;;;;;;;;;2.30;99.90;;;;;;5093057;28;19924;-61
2022/03/31 10:54:23;;;;;;;;;;;2.30;99.90;;;;;;5092547;28;19978;-61
2022/03/31 10:56:48;;;;;;;;;;;2.20;99.90;;;;;;5081133;28;19924;-61
2022/03/31 10:59:15;;;;;;;;;;;2.10;99.90;;;;;;5072993;28;20290;-61
2022/03/31 11:01:41;;;;;;;;;;;2.10;99.90;;;;;;5076084;28;19924;-61
2022/03/31 11:04:09;;;;;;;;;;;2.10;99.90;;;;;;5083616;28;19924;-61
2022/03/31 11:06:46;;;;;;;;;;;2.10;99.90;;;;;;5086422;28;19924;-61
2022/03/31 11:09:19;;;;;;;;;;;2.10;99.90;;;;;;5086192;28;19924;-61
2022/03/31 11:11:49;;;;;;;;;;;2.30;99.90;;;;;;5084592;28;19931;-61
2022/03/31 11:14:17;;;;;;;;;;;2.10;99.90;;;;;;5086892;28;20020;-61
2022/03/31 11:16:43;;;;;;;;;;;2.10;99.90;;;;;;5083427;28;19985;-61
2022/03/31 11:19:09;;;;;;;;;;;2.10;99.90;;;;;;5092757;28;19928;-61
2022/03/31 11:21:35;;;;;;;;;;;2.10;99.90;;;;;;5078772;28;19993;-61
2022/03/31 11:24:01;;;;;;;;;;;2.10;99.90;;;;;;5077557;28;20346;-61
2022/03/31 11:26:30;;;;;;;;;;;2.20;99.90;;;;;;5075531;28;19978;-61
2022/03/31 11:28:56;;;;;;;;;;;2.10;99.90;;;;;;5076816;28;20050;-61
2022/03/31 11:31:22;;;;;;;;;;;2.10;99.90;;;;;;5095267;28;19971;-61
2022/03/31 11:33:48;;;;;;;;;;;2.10;99.90;;;;;;5094512;28;19924;-61
2022/03/31 11:36:13;;;;;;;;;;;2.10;99.90;;;;;;5089295;28;20346;-61
2022/03/31 11:38:39;;;;;;;;;;;2.10;99.90;;;;;;5115519;28;20069;-61
2022/03/31 11:41:05;;;;;;;;;;;2.10;99.90;;;;;;5103976;28;19924;-61
2022/03/31 11:43:32;;;;;;;;;;;2.10;99.90;;;;;;5096104;28;19951;-61
2022/03/31 11:45:58;;;;;;;;;;;2.10;99.90;;;;;;5095066;28;19931;-61
2022/03/31 11:48:31;;;;;;;;;;;2.20;99.90;;;;;;5096075;28;20027;-61
2022/03/31 11:50:58;;;;;;;;;;;2.20;99.90;;;;;;5095883;28;19931;-61
2022/03/31 11:53:25;;;;;;;;;;;2.20;99.90;;;;;;5093538;28;19932;-61
2022/03/31 11:55:56;;;;;;;;;;;2.30;99.90;;;;;;5093032;28;19971;-61
2022/03/31 11:58:22;;;;;;;;;;;2.30;99.90;;;;;;5083887;28;20037;-61
2022/03/31 12:00:48;;;;;;;;;;;2.30;99.90;;;;;;5091710;28;19924;-61
2022/03/31 12:03:15;;;;;;;;;;;2.30;99.90;;;;;;5083981;28;19928;-61
2022/03/31 12:05:41;;;;;;;;;;;2.40;99.90;;;;;;5084571;28;19970;-61
2022/03/31 12:08:07;;;;;;;;;;;2.50;99.90;;;;;;5086150;28;19924;-61
2022/03/31 12:10:33;;;;;;;;;;;2.50;99.90;;;;;;5083866;28;19932;-61
2022/03/31 12:12:59;;;;;;;;;;;2.50;99.90;;;;;;5085120;28;19972;-61
2022/03/31 12:15:26;;;;;;;;;;;2.50;99.90;;;;;;5083054;28;19974;-61
2022/03/31 12:18:06;;;;;;;;;;;2.60;99.90;;;;;;5086112;28;19971;-61
2022/03/31 12:20:33;;;;;;;;;;;2.60;99.90;;;;;;5085940;28;20374;-61
2022/03/31 12:22:59;;;;;;;;;;;2.50;99.90;;;;;;5079457;28;19921;-61
2022/03/31 12:25:25;;;;;;;;;;;2.50;99.90;;;;;;5087704;28;19931;-61
2022/03/31 12:27:51;;;;;;;;;;;2.50;99.90;;;;;;5093201;28;19924;-61
2022/03/31 12:30:17;;;;;;;;;;;2.50;99.90;;;;;;5085272;28;19936;-61
2022/03/31 12:32:47;;;;;;;;;;;2.50;99.90;;;;;;5083382;28;19969;-61
2022/03/31 12:35:12;;;;;;;;;;;2.60;99.90;;;;;;5081752;28;20049;-61
2022/03/31 12:37:38;;;;;;;;;;;2.60;99.90;;;;;;5084191;28;20003;-61
2022/03/31 12:40:06;;;;;;;;;;;2.60;99.90;;;;;;5083627;28;19990;-60
2022/03/31 12:42:31;;;;;;;;;;;2.60;99.90;;;;;;5084522;28;19925;-61
2022/03/31 12:44:57;;;;;;;;;;;2.60;99.90;;;;;;5084043;28;19931;-61
2022/03/31 12:47:24;;;;;;;;;;;2.60;99.90;;;;;;5085105;28;19931;-61
2022/03/31 12:49:50;;;;;;;;;;;2.60;99.90;;;;;;5081156;28;19924;-61
2022/03/31 12:52:18;;;;;;;;;;;2.60;99.90;;;;;;5092311;28;20293;-61
2022/03/31 12:54:48;;;;;;;;;;;2.60;99.90;;;;;;5094857;28;19969;-61
2022/03/31 12:57:19;;;;;;;;;;;2.70;99.90;;;;;;5091671;28;19932;-61
2022/03/31 12:59:55;;;;;;;;;;;2.60;99.90;;;;;;5082384;28;19924;-61
2022/03/31 13:02:21;;;;;;;;;;;2.60;99.90;;;;;;5090981;28;19978;-61
2022/03/31 13:04:47;;;;;;;;;;;2.70;99.90;;;;;;5090714;28;19931;-61
2022/03/31 13:07:14;;;;;;;;;;;2.60;99.90;;;;;;5094002;28;19971;-61
2022/03/31 13:09:40;;;;;;;;;;;2.60;99.90;;;;;;5093823;28;19924;-61
2022/03/31 13:12:09;;;;;;;;;;;2.70;99.90;;;;;;5093234;28;19924;-61
2022/03/31 13:14:36;;;;;;;;;;;2.70;99.90;;;;;;5089263;28;19970;-61
2022/03/31 13:17:03;;;;;;;;;;;2.70;99.90;;;;;;5073592;28;19983;-61
2022/03/31 13:19:29;;;;;;;;;;;2.70;99.90;;;;;;5093991;28;19924;-61
2022/03/31 13:21:54;;;;;;;;;;;2.60;99.90;;;;;;5077775;28;20294;-61
2022/03/31 13:24:20;;;;;;;;;;;2.60;99.90;;;;;;5074589;28;20306;-61
2022/03/31 13:26:48;;;;;;;;;;;2.60;99.90;;;;;;5081876;28;19931;-61
2022/03/31 13:29:13;;;;;;;;;;;2.60;99.90;;;;;;5093360;28;19928;-60
2022/03/31 13:31:40;;;;;;;;;;;2.60;99.90;;;;;;5092320;28;20065;-61
2022/03/31 13:34:07;;;;;;;;;;;2.50;99.90;;;;;;5093689;28;19920;-61
2022/03/31 13:36:32;;;;;;;;;;;2.50;99.90;;;;;;5072511;28;19968;-61
2022/03/31 13:38:58;;;;;;;;;;;2.50;99.90;;;;;;5080680;28;19924;-61
2022/03/31 13:41:24;;;;;;;;;;;2.50;99.90;;;;;;5085363;28;19995;-61
2022/03/31 13:43:50;;;;;;;;;;;2.50;99.90;;;;;;5085614;28;19939;-60
2022/03/31 13:46:16;;;;;;;;;;;2.50;99.90;;;;;;5087155;28;20007;-61
2022/03/31 13:48:41;;;;;;;;;;;2.40;99.90;;;;;;5091526;28;19938;-60
2022/03/31 13:51:07;;;;;;;;;;;2.50;99.90;;;;;;5092821;28;19924;-61
2022/03/31 13:53:45;;;;;;;;;;;2.40;99.90;;;;;;5092565;28;19977;-61
2022/03/31 13:56:12;;;;;;;;;;;2.40;99.90;;;;;;5085759;28;19931;-61
2022/03/31 14:01:22;;;;;;;;;;;2.40;99.90;;;;;;5084255;28;20282;-60
2022/03/31 14:03:48;;;;;;;;;;;2.40;99.90;;;;;;5092711;28;19924;-61
2022/03/31 14:06:16;;;;;;;;;;;2.50;99.90;;;;;;5092316;28;19932;-61
2022/03/31 14:08:43;;;;;;;;;;;2.50;99.90;;;;;;5093344;28;20374;-60
2022/03/31 14:11:09;;;;;;;;;;;2.50;99.90;;;;;;5092344;28;19931;-60
2022/03/31 14:13:35;;;;;;;;;;;2.50;99.90;;;;;;5080961;28;20367;-60
2022/03/31 14:16:03;;;;;;;;;;;2.50;99.90;;;;;;5073243;28;19927;-60
2022/03/31 14:18:30;;;;;;;;;;;2.50;99.90;;;;;;5072714;28;19936;-61
2022/03/31 14:20:56;;;;;;;;;;;2.60;99.90;;;;;;5087410;28;19924;-60
2022/03/31 14:23:21;;;;;;;;;;;2.60;99.90;;;;;;5093201;28;20031;-61
2022/03/31 14:25:47;;;;;;;;;;;2.60;99.90;;;;;;5091681;28;20002;-60
2022/03/31 14:28:13;;;;;;;;;;;2.60;99.90;;;;;;5123436;28;19963;-61
2022/03/31 14:30:39;;;;;;;;;;;2.60;99.90;;;;;;5076119;28;19924;-60
2022/03/31 14:33:05;;;;;;;;;;;2.60;99.90;;;;;;5082557;28;20019;-61